Albatros — C6CN4 — position and weather

sailwx.info

Track history (hours):
 
Tides and Currents Weather Stations Pressure Air Temp Water Temp Dewpoint Dewpoint Depression Visibility Wind Speed Wind Dir Waves Ship Positions

Albatros

Last reported at 2020-Jan-07 00:16 UTC. Time now 2020-Jan-21 23:13 UTC.
Position N 18°39' W 066°07'.
Warning: this ship's position is 14 days out of date.

Length 205.5 m; beam 25.2 m; draft 7.6 m.

Type: Passenger vessel. MMSI: 308784000.

Date/timePositionNaut miles runAvg speedWind from/ knotsBaromVisibWave heightAir tempDewpointWater temp
2020-Jan-07 00:16N 18°39' W 066°07'516.2
2020-Jan-06 23:59N 18°38' W 066°03'2316.0
2020-Jan-06 22:34N 18°36' W 065°39'2717.5
2020-Jan-06 21:00N 18°34' W 065°10'105 6.2
2020-Jan-06 04:00N 18°03' W 063°24'611.3
2020-Jan-06 03:27N 18°01' W 063°17'14 6.1
2020-Jan-06 01:10N 18°01' W 063°03'0 0.0
2020-Jan-05 23:55N 18°01' W 063°03'0 0.0
2020-Jan-05 23:07N 18°01' W 063°03'0 0.0
2020-Jan-05 22:25N 18°01' W 063°03'0 0.0
2020-Jan-05 18:28N 18°01' W 063°03'0 0.0
2020-Jan-05 14:53N 18°01' W 063°03'0 0.0
2020-Jan-05 12:49N 18°01' W 063°03'0 0.0
2020-Jan-05 11:49N 18°01' W 063°03'7 5.0
2020-Jan-05 10:30N 17°55' W 063°06'1312.0
2020-Jan-05 09:26N 17°55' W 062°53'2 0.1
2020-Jan-04 15:48N 17°53' W 062°53'  
2019-Dec-28 18:00N 32°39' W 016°54'0 0.3
2019-Dec-28 17:19N 32°39' W 016°55'0 0.0
2019-Dec-28 14:46N 32°39' W 016°55'0 0.0
2019-Dec-28 07:30N 32°39' W 016°55'4210.9
2019-Dec-28 03:40N 32°54' W 016°09'3113.9
2019-Dec-28 01:27N 33°08' W 015°36'714.1
2019-Dec-28 00:57N 33°12' W 015°29'  
Track history (hours):
 
Tides and Currents Weather Stations Pressure Air Temp Water Temp Dewpoint Dewpoint Depression Visibility Wind Speed Wind Dir Waves Ship Positions

Albatros

Last reported at 2020-Jan-07 00:16 UTC. Time now 2020-Jan-21 23:13 UTC.
Position N 18°39' W 066°07'.
Warning: this ship's position is 14 days out of date.

Length 205.5 m; beam 25.2 m; draft 7.6 m.

Type: Passenger vessel. MMSI: 308784000.

Date/timePositionNaut miles runAvg speedWind from/ knotsBaromVisibWave heightAir tempDewpointWater temp
2020-Jan-07 00:16N 18°39' W 066°07'516.2
2020-Jan-06 23:59N 18°38' W 066°03'2316.0
2020-Jan-06 22:34N 18°36' W 065°39'2717.5
2020-Jan-06 21:00N 18°34' W 065°10'105 6.2
2020-Jan-06 04:00N 18°03' W 063°24'611.3
2020-Jan-06 03:27N 18°01' W 063°17'14 6.1
2020-Jan-06 01:10N 18°01' W 063°03'0 0.0
2020-Jan-05 23:55N 18°01' W 063°03'0 0.0
2020-Jan-05 23:07N 18°01' W 063°03'0 0.0
2020-Jan-05 22:25N 18°01' W 063°03'0 0.0
2020-Jan-05 18:28N 18°01' W 063°03'0 0.0
2020-Jan-05 14:53N 18°01' W 063°03'0 0.0
2020-Jan-05 12:49N 18°01' W 063°03'0 0.0
2020-Jan-05 11:49N 18°01' W 063°03'7 5.0
2020-Jan-05 10:30N 17°55' W 063°06'1312.0
2020-Jan-05 09:26N 17°55' W 062°53'2 0.1
2020-Jan-04 15:48N 17°53' W 062°53'  
2019-Dec-28 18:00N 32°39' W 016°54'0 0.3
2019-Dec-28 17:19N 32°39' W 016°55'0 0.0
2019-Dec-28 14:46N 32°39' W 016°55'0 0.0
2019-Dec-28 07:30N 32°39' W 016°55'4210.9
2019-Dec-28 03:40N 32°54' W 016°09'3113.9
2019-Dec-28 01:27N 33°08' W 015°36'714.1
2019-Dec-28 00:57N 33°12' W 015°29'  

Dump ship's entire track history